createdAt,value
2022-12-17T00:00:30.094Z,265.70
2022-12-17T00:01:30.730Z,215.00
2022-12-17T00:02:31.979Z,277.00
2022-12-17T00:03:32.459Z,304.70
2022-12-17T00:04:32.732Z,344.60
2022-12-17T00:05:33.434Z,340.00
2022-12-17T00:06:34.139Z,355.90
2022-12-17T00:07:34.902Z,393.40
2022-12-17T00:08:35.607Z,224.90
2022-12-17T00:09:36.310Z,266.40
2022-12-17T00:10:37.015Z,220.20
2022-12-17T00:11:37.728Z,242.20
2022-12-17T00:12:38.433Z,280.00
2022-12-17T00:13:39.488Z,248.20
2022-12-17T00:14:39.699Z,412.20
2022-12-17T00:15:40.464Z,289.90
2022-12-17T00:16:41.221Z,247.60
2022-12-17T00:17:41.924Z,268.70
2022-12-17T00:18:42.649Z,212.90
2022-12-17T00:19:43.331Z,235.60
2022-12-17T00:20:44.034Z,212.70
2022-12-17T00:21:44.738Z,202.30
2022-12-17T00:22:45.485Z,195.70
2022-12-17T00:23:46.170Z,193.50
2022-12-17T00:24:46.871Z,187.90
2022-12-17T00:25:47.576Z,197.40
2022-12-17T00:26:48.283Z,200.50
2022-12-17T00:27:48.996Z,194.70
2022-12-17T00:28:49.701Z,207.50
2022-12-17T00:29:50.414Z,198.20
2022-12-17T00:30:51.119Z,184.90
2022-12-17T00:31:51.835Z,203.10
2022-12-17T00:32:52.544Z,184.90
2022-12-17T00:33:53.268Z,186.20
2022-12-17T00:34:53.838Z,222.20
2022-12-17T00:35:54.555Z,173.10
2022-12-17T00:36:55.323Z,389.50
2022-12-17T00:37:56.458Z,293.10
2022-12-17T00:38:57.090Z,380.50
2022-12-17T00:39:59.517Z,342.60
2022-12-17T00:40:58.730Z,344.30
2022-12-17T00:41:59.442Z,313.80
2022-12-17T00:43:00.381Z,291.40
2022-12-17T00:44:01.087Z,211.10
2022-12-17T00:45:01.801Z,166.70
2022-12-17T00:46:02.505Z,174.00
2022-12-17T00:47:03.279Z,190.20
2022-12-17T00:48:04.380Z,203.60
2022-12-17T00:49:04.612Z,198.70
2022-12-17T00:50:05.277Z,178.00
2022-12-17T00:51:05.985Z,170.00
2022-12-17T00:52:06.697Z,154.40
2022-12-17T00:53:07.901Z,171.80
2022-12-17T00:54:08.086Z,203.70
2022-12-17T00:55:08.795Z,172.60
2022-12-17T00:56:09.500Z,186.10
2022-12-17T00:57:10.206Z,152.90
2022-12-17T00:58:11.381Z,200.50
2022-12-17T00:59:11.593Z,184.50
2022-12-17T01:00:12.306Z,159.10
2022-12-17T01:01:13.164Z,193.20
2022-12-17T01:02:14.032Z,163.00
2022-12-17T01:03:14.967Z,182.80
2022-12-17T01:04:15.638Z,181.30
2022-12-17T01:05:16.291Z,150.80
2022-12-17T01:06:17.019Z,145.60
2022-12-17T01:07:17.726Z,161.60
2022-12-17T01:08:18.899Z,164.50
2022-12-17T01:09:19.088Z,152.50
2022-12-17T01:10:19.794Z,157.10
2022-12-17T01:11:20.504Z,155.40
2022-12-17T01:12:21.214Z,179.70
2022-12-17T01:13:22.383Z,157.40
2022-12-17T01:14:22.589Z,157.20
2022-12-17T01:15:23.296Z,161.50
2022-12-17T01:16:24.054Z,156.00
2022-12-17T01:17:24.719Z,150.60
2022-12-17T01:18:25.882Z,163.10
2022-12-17T01:19:26.104Z,154.40
2022-12-17T01:20:26.793Z,159.70
2022-12-17T01:21:27.497Z,163.90
2022-12-17T01:22:28.206Z,152.60
2022-12-17T01:23:28.956Z,146.90
2022-12-17T01:24:29.640Z,147.90
2022-12-17T01:25:30.345Z,179.80
2022-12-17T01:26:31.054Z,148.40
2022-12-17T01:27:31.759Z,149.20
2022-12-17T01:28:32.884Z,148.90
2022-12-17T01:29:33.089Z,152.00
2022-12-17T01:30:33.797Z,157.80
2022-12-17T01:31:35.440Z,149.30
2022-12-17T01:32:35.261Z,192.90
2022-12-17T01:33:36.672Z,222.40
2022-12-17T01:34:36.593Z,248.90
2022-12-17T01:35:37.253Z,226.40
2022-12-17T01:36:37.958Z,199.00
2022-12-17T01:37:38.665Z,231.90
2022-12-17T01:38:39.899Z,204.70
2022-12-17T01:39:40.083Z,221.30
2022-12-17T01:40:40.799Z,202.20
2022-12-17T01:41:41.521Z,172.80
2022-12-17T01:42:42.224Z,269.10
2022-12-17T01:43:42.930Z,294.10
2022-12-17T01:44:43.639Z,233.80
2022-12-17T01:45:44.408Z,193.80
2022-12-17T01:46:45.058Z,288.80
2022-12-17T01:47:45.771Z,309.00
2022-12-17T01:48:46.478Z,193.60
2022-12-17T01:49:47.206Z,259.20
2022-12-17T01:50:47.883Z,230.10
2022-12-17T01:51:48.588Z,196.80
2022-12-17T01:52:49.292Z,166.20
2022-12-17T01:53:50.403Z,176.50
2022-12-17T01:54:50.589Z,151.80
2022-12-17T01:55:51.294Z,149.30
2022-12-17T01:56:52.000Z,140.60
2022-12-17T01:57:52.707Z,133.30
2022-12-17T01:58:53.882Z,146.50
2022-12-17T01:59:54.089Z,140.50
2022-12-17T02:00:54.877Z,131.00
2022-12-17T02:01:55.741Z,131.40
2022-12-17T02:02:56.206Z,130.30
2022-12-17T02:03:56.981Z,126.70
2022-12-17T02:04:57.716Z,128.80
2022-12-17T02:05:58.395Z,122.60
2022-12-17T02:06:59.292Z,123.40
2022-12-17T02:08:00.003Z,131.90
2022-12-17T02:09:00.735Z,138.40
2022-12-17T02:10:01.450Z,131.20
2022-12-17T02:11:02.164Z,135.20
2022-12-17T02:12:02.895Z,130.10
2022-12-17T02:13:03.604Z,115.40
2022-12-17T02:14:04.380Z,121.40
2022-12-17T02:15:05.095Z,120.80
2022-12-17T02:16:05.867Z,121.80
2022-12-17T02:17:06.518Z,129.10
2022-12-17T02:18:07.225Z,129.40
2022-12-17T02:19:07.939Z,119.50
2022-12-17T02:20:08.673Z,122.00
2022-12-17T02:21:09.370Z,141.40
2022-12-17T02:22:10.075Z,126.50
2022-12-17T02:23:10.780Z,120.00
2022-12-17T02:24:11.532Z,121.20
2022-12-17T02:25:12.215Z,122.70
2022-12-17T02:26:12.924Z,130.50
2022-12-17T02:27:13.629Z,138.00
2022-12-17T02:28:14.338Z,133.40
2022-12-17T02:29:15.053Z,156.70
2022-12-17T02:30:15.760Z,191.50
2022-12-17T02:31:16.537Z,169.00
2022-12-17T02:32:17.215Z,178.60
2022-12-17T02:33:17.923Z,168.70
2022-12-17T02:34:18.885Z,143.70
2022-12-17T02:35:19.609Z,128.00
2022-12-17T02:36:20.281Z,129.20
2022-12-17T02:37:21.010Z,127.00
2022-12-17T02:38:21.702Z,129.30
2022-12-17T02:39:22.438Z,133.00
2022-12-17T02:40:23.118Z,137.50
2022-12-17T02:41:23.823Z,146.90
2022-12-17T02:42:24.533Z,129.70
2022-12-17T02:43:25.239Z,130.20
2022-12-17T02:44:25.953Z,136.70
2022-12-17T02:45:26.661Z,133.60
2022-12-17T02:46:27.433Z,143.20
2022-12-17T02:47:28.090Z,133.80
2022-12-17T02:48:28.813Z,133.40
2022-12-17T02:49:29.522Z,140.90
2022-12-17T02:50:30.251Z,140.10
2022-12-17T02:51:30.899Z,146.90
2022-12-17T02:52:34.928Z,138.10
2022-12-17T02:53:32.435Z,146.70
2022-12-17T02:54:33.401Z,148.10
2022-12-17T02:55:34.087Z,159.80
2022-12-17T02:56:34.792Z,141.50
2022-12-17T02:57:35.495Z,148.90
2022-12-17T02:58:36.199Z,144.60
2022-12-17T02:59:36.912Z,139.50
2022-12-17T03:00:37.620Z,137.90
2022-12-17T03:01:38.402Z,148.00
2022-12-17T03:02:39.143Z,140.60
2022-12-17T03:03:40.244Z,146.80
2022-12-17T03:04:40.513Z,143.80
2022-12-17T03:05:45.558Z,152.60
2022-12-17T03:06:41.985Z,132.20
2022-12-17T03:07:42.690Z,144.80
2022-12-17T03:08:43.398Z,132.00
2022-12-17T03:09:44.405Z,132.80
2022-12-17T03:10:45.088Z,137.50
2022-12-17T03:11:45.795Z,128.40
2022-12-17T03:12:46.504Z,137.80
2022-12-17T03:13:47.211Z,135.00
2022-12-17T03:14:47.930Z,132.40
2022-12-17T03:15:48.645Z,125.60
2022-12-17T03:16:49.445Z,121.30
2022-12-17T03:17:50.091Z,126.20
2022-12-17T03:18:50.805Z,127.50
2022-12-17T03:19:51.881Z,124.20
2022-12-17T03:20:52.638Z,125.20
2022-12-17T03:21:53.289Z,127.90
2022-12-17T03:22:53.991Z,140.40
2022-12-17T03:23:54.702Z,137.40
2022-12-17T03:24:55.920Z,135.30
2022-12-17T03:25:56.114Z,140.20
2022-12-17T03:26:56.826Z,141.10
2022-12-17T03:27:57.534Z,134.40
2022-12-17T03:28:58.237Z,132.40
2022-12-17T03:29:59.378Z,135.70
2022-12-17T03:30:59.634Z,137.80
2022-12-17T03:32:00.291Z,130.50
2022-12-17T03:33:01.000Z,182.60
2022-12-17T03:34:01.702Z,164.30
2022-12-17T03:35:02.886Z,148.10
2022-12-17T03:36:03.105Z,142.00
2022-12-17T03:37:03.761Z,367.60
2022-12-17T03:38:04.467Z,196.80
2022-12-17T03:39:05.171Z,177.20
2022-12-17T03:40:06.403Z,150.80
2022-12-17T03:41:06.586Z,144.20
2022-12-17T03:42:07.294Z,138.20
2022-12-17T03:43:08.005Z,137.60
2022-12-17T03:44:08.712Z,156.90
2022-12-17T03:45:09.431Z,139.60
2022-12-17T03:46:10.216Z,138.30
2022-12-17T03:47:10.927Z,136.80
2022-12-17T03:48:11.635Z,133.50
2022-12-17T03:49:12.364Z,137.40
2022-12-17T03:50:13.077Z,132.80
2022-12-17T03:51:13.812Z,132.60
2022-12-17T03:52:14.459Z,139.20
2022-12-17T03:53:15.159Z,127.90
2022-12-17T03:54:15.873Z,121.40
2022-12-17T03:55:16.611Z,123.10
2022-12-17T03:56:17.301Z,132.20
2022-12-17T03:57:18.010Z,126.20
2022-12-17T03:58:18.716Z,113.60
2022-12-17T03:59:19.425Z,113.80
2022-12-17T04:00:20.146Z,115.00
2022-12-17T04:01:20.964Z,122.20
2022-12-17T04:02:22.012Z,120.80
2022-12-17T04:03:22.380Z,126.80
2022-12-17T04:04:23.035Z,124.30
2022-12-17T04:05:23.883Z,131.60
2022-12-17T04:06:24.604Z,132.60
2022-12-17T04:07:25.273Z,120.70
2022-12-17T04:08:25.979Z,116.90
2022-12-17T04:09:26.884Z,121.70
2022-12-17T04:10:27.623Z,124.70
2022-12-17T04:11:28.304Z,120.50
2022-12-17T04:12:29.015Z,115.50
2022-12-17T04:13:29.720Z,114.30
2022-12-17T04:14:30.435Z,122.80
2022-12-17T04:15:31.449Z,122.30
2022-12-17T04:16:32.104Z,123.10
2022-12-17T04:17:32.812Z,131.30
2022-12-17T04:18:33.515Z,159.90
2022-12-17T04:19:34.223Z,120.20
2022-12-17T04:20:34.935Z,109.40
2022-12-17T04:21:35.657Z,112.50
2022-12-17T04:22:36.293Z,118.20
2022-12-17T04:23:37.215Z,110.80
2022-12-17T04:24:37.596Z,110.90
2022-12-17T04:25:38.332Z,105.80
2022-12-17T04:26:39.022Z,196.10
2022-12-17T04:27:39.724Z,160.70
2022-12-17T04:28:40.448Z,130.20
2022-12-17T04:29:41.150Z,102.00
2022-12-17T04:30:41.940Z,103.80
2022-12-17T04:31:42.586Z,90.90
2022-12-17T04:32:43.316Z,97.20
2022-12-17T04:33:44.019Z,99.90
2022-12-17T04:34:44.725Z,96.60
2022-12-17T04:35:45.440Z,121.10
2022-12-17T04:36:46.215Z,105.80
2022-12-17T04:37:46.864Z,109.90
2022-12-17T04:38:47.570Z,122.70
2022-12-17T04:39:48.278Z,135.10
2022-12-17T04:40:49.466Z,90.70
2022-12-17T04:41:49.580Z,128.40
2022-12-17T04:42:50.287Z,124.00
2022-12-17T04:43:50.993Z,98.00
2022-12-17T04:44:51.698Z,101.50
2022-12-17T04:45:52.451Z,99.00
2022-12-17T04:46:53.117Z,90.20
2022-12-17T04:47:53.823Z,98.90
2022-12-17T04:48:54.536Z,91.30
2022-12-17T04:49:55.243Z,101.30
2022-12-17T04:50:55.958Z,91.30
2022-12-17T04:51:56.679Z,89.00
2022-12-17T04:52:57.350Z,94.20
2022-12-17T04:53:58.059Z,97.60
2022-12-17T04:54:58.762Z,104.30
2022-12-17T04:55:59.495Z,96.60
2022-12-17T04:57:00.182Z,96.60
2022-12-17T04:58:00.892Z,99.10
2022-12-17T04:59:01.601Z,100.10
2022-12-17T05:00:02.318Z,103.40
2022-12-17T05:01:03.383Z,102.90
2022-12-17T05:02:03.712Z,101.10
2022-12-17T05:03:04.634Z,99.50
2022-12-17T05:04:05.337Z,100.10
2022-12-17T05:05:06.045Z,107.10
2022-12-17T05:06:06.880Z,103.50
2022-12-17T05:07:07.601Z,98.60
2022-12-17T05:08:08.252Z,106.80
2022-12-17T05:09:08.966Z,108.50
2022-12-17T05:10:09.686Z,99.70
2022-12-17T05:11:10.894Z,97.20
2022-12-17T05:12:11.086Z,97.90
2022-12-17T05:13:11.795Z,93.00
2022-12-17T05:14:12.510Z,97.50
2022-12-17T05:15:13.211Z,98.70
2022-12-17T05:16:14.015Z,93.70
2022-12-17T05:17:14.672Z,93.70
2022-12-17T05:18:15.382Z,104.20
2022-12-17T05:19:16.103Z,93.70
2022-12-17T05:20:16.798Z,93.30
2022-12-17T05:21:17.877Z,100.80
2022-12-17T05:22:18.103Z,106.10
2022-12-17T05:23:18.745Z,97.00
2022-12-17T05:24:19.460Z,116.10
2022-12-17T05:25:20.166Z,117.30
2022-12-17T05:26:21.415Z,100.90
2022-12-17T05:27:21.598Z,114.70
2022-12-17T05:28:22.304Z,98.30
2022-12-17T05:29:23.022Z,97.70
2022-12-17T05:30:23.725Z,104.00
2022-12-17T05:31:24.563Z,93.40
2022-12-17T05:32:25.285Z,100.20
2022-12-17T05:33:25.993Z,103.30
2022-12-17T05:34:26.699Z,117.40
2022-12-17T05:35:27.420Z,102.20
2022-12-17T05:36:28.135Z,125.20
2022-12-17T05:37:28.863Z,116.20
2022-12-17T05:38:29.509Z,95.80
2022-12-17T05:39:30.219Z,125.50
2022-12-17T05:40:30.926Z,105.60
2022-12-17T05:41:31.665Z,115.90
2022-12-17T05:42:32.347Z,110.70
2022-12-17T05:43:33.392Z,99.20
2022-12-17T05:44:33.676Z,99.50
2022-12-17T05:45:34.380Z,96.50
2022-12-17T05:46:35.156Z,94.00
2022-12-17T05:47:35.817Z,118.70
2022-12-17T05:48:36.523Z,113.40
2022-12-17T05:49:37.230Z,125.50
2022-12-17T05:50:37.943Z,101.20
2022-12-17T05:51:39.287Z,93.30
2022-12-17T05:52:39.504Z,100.00
2022-12-17T05:53:40.134Z,111.50
2022-12-17T05:54:40.843Z,116.00
2022-12-17T05:55:41.546Z,109.20
2022-12-17T05:56:42.282Z,101.70
2022-12-17T05:57:42.965Z,115.40
2022-12-17T05:58:43.671Z,127.20
2022-12-17T05:59:44.415Z,138.80
2022-12-17T06:00:45.123Z,151.00
2022-12-17T06:01:45.935Z,96.40
2022-12-17T06:02:46.759Z,100.40
2022-12-17T06:03:47.630Z,144.90
2022-12-17T06:04:48.351Z,142.40
2022-12-17T06:05:49.058Z,112.00
2022-12-17T06:06:49.774Z,118.80
2022-12-17T06:07:50.497Z,135.00
2022-12-17T06:08:51.155Z,146.20
2022-12-17T06:09:51.865Z,140.70
2022-12-17T06:10:52.573Z,120.80
2022-12-17T06:11:57.920Z,129.00
2022-12-17T06:12:54.889Z,124.60
2022-12-17T06:13:54.592Z,111.20
2022-12-17T06:14:55.299Z,105.80
2022-12-17T06:15:56.052Z,134.10
2022-12-17T06:16:56.723Z,177.50
2022-12-17T06:17:57.434Z,117.50
2022-12-17T06:18:58.136Z,116.20
2022-12-17T06:19:58.842Z,99.50
2022-12-17T06:20:59.554Z,110.80
2022-12-17T06:22:00.377Z,106.10
2022-12-17T06:23:01.100Z,107.90
2022-12-17T06:24:01.779Z,110.40
2022-12-17T06:25:02.491Z,113.00
2022-12-17T06:26:03.200Z,111.90
2022-12-17T06:27:04.407Z,109.20
2022-12-17T06:28:04.600Z,112.20
2022-12-17T06:29:05.307Z,112.30
2022-12-17T06:30:06.015Z,109.20
2022-12-17T06:31:06.745Z,108.40
2022-12-17T06:32:07.875Z,100.90
2022-12-17T06:33:08.086Z,112.00
2022-12-17T06:34:08.790Z,104.40
2022-12-17T06:35:09.499Z,109.80
2022-12-17T06:36:10.214Z,105.30
2022-12-17T06:37:10.930Z,95.70
2022-12-17T06:38:11.650Z,97.00
2022-12-17T06:39:12.329Z,107.50
2022-12-17T06:40:13.036Z,91.90
2022-12-17T06:41:13.743Z,96.10
2022-12-17T06:42:14.892Z,103.10
2022-12-17T06:43:15.083Z,94.70
2022-12-17T06:44:15.791Z,93.80
2022-12-17T06:45:16.499Z,94.70
2022-12-17T06:46:17.246Z,96.60
2022-12-17T06:47:18.375Z,92.70
2022-12-17T06:48:18.615Z,97.50
2022-12-17T06:49:19.324Z,97.70
2022-12-17T06:50:20.034Z,93.10
2022-12-17T06:51:20.748Z,88.80
2022-12-17T06:52:21.873Z,94.30
2022-12-17T06:53:22.096Z,108.00
2022-12-17T06:54:22.746Z,88.40
2022-12-17T06:55:23.454Z,92.40
2022-12-17T06:56:24.162Z,92.70
2022-12-17T06:57:25.394Z,87.30
2022-12-17T06:58:25.588Z,89.90
2022-12-17T06:59:26.296Z,91.20
2022-12-17T07:00:27.002Z,96.00
2022-12-17T07:01:27.812Z,98.70
2022-12-17T07:02:28.701Z,100.40
2022-12-17T07:03:29.495Z,94.50
2022-12-17T07:04:30.159Z,92.60
2022-12-17T07:05:30.869Z,88.80
2022-12-17T07:06:31.576Z,96.50
2022-12-17T07:07:32.290Z,93.50
2022-12-17T07:08:33.018Z,95.40
2022-12-17T07:09:33.691Z,94.00
2022-12-17T07:10:34.383Z,91.60
2022-12-17T07:11:35.177Z,95.30
2022-12-17T07:12:35.891Z,93.60
2022-12-17T07:13:37.021Z,92.20
2022-12-17T07:14:37.330Z,85.60
2022-12-17T07:15:38.038Z,89.70
2022-12-17T07:16:38.771Z,87.80
2022-12-17T07:17:39.456Z,85.40
2022-12-17T07:18:40.164Z,95.90
2022-12-17T07:19:40.865Z,91.00
2022-12-17T07:20:41.572Z,94.30
2022-12-17T07:21:42.277Z,93.60
2022-12-17T07:22:43.380Z,82.60
2022-12-17T07:23:43.605Z,97.10
2022-12-17T07:24:44.547Z,92.30
2022-12-17T07:25:46.351Z,86.00
2022-12-17T07:26:46.131Z,94.60
2022-12-17T07:27:46.909Z,90.50
2022-12-17T07:28:47.593Z,90.10
2022-12-17T07:29:48.300Z,85.90
2022-12-17T07:30:54.150Z,86.70
2022-12-17T07:31:50.713Z,81.20
2022-12-17T07:32:50.874Z,86.60
2022-12-17T07:33:51.083Z,82.90
2022-12-17T07:34:51.793Z,91.10
2022-12-17T07:35:52.503Z,81.80
2022-12-17T07:36:53.231Z,85.70
2022-12-17T07:37:54.383Z,91.20
2022-12-17T07:38:54.607Z,86.30
2022-12-17T07:39:55.262Z,80.20
2022-12-17T07:40:55.965Z,87.20
2022-12-17T07:41:56.671Z,79.80
2022-12-17T07:42:57.894Z,77.80
2022-12-17T07:43:58.080Z,85.90
2022-12-17T07:44:58.791Z,86.10
2022-12-17T07:45:59.557Z,80.70
2022-12-17T07:47:00.207Z,76.10
2022-12-17T07:48:00.917Z,85.30
2022-12-17T07:49:01.657Z,85.00
2022-12-17T07:50:02.371Z,85.10
2022-12-17T07:51:03.072Z,74.60
2022-12-17T07:52:03.776Z,78.70
2022-12-17T07:53:04.883Z,79.40
2022-12-17T07:54:05.104Z,85.70
2022-12-17T07:55:05.784Z,76.70
2022-12-17T07:56:06.483Z,72.70
2022-12-17T07:57:07.188Z,75.40
2022-12-17T07:58:07.974Z,76.50
2022-12-17T07:59:08.604Z,74.10
2022-12-17T08:00:09.310Z,70.60
2022-12-17T08:01:10.054Z,75.70
2022-12-17T08:02:10.881Z,79.00
2022-12-17T08:03:11.662Z,75.20
2022-12-17T08:04:12.339Z,72.50
2022-12-17T08:05:13.048Z,80.20
2022-12-17T08:06:13.762Z,75.50
2022-12-17T08:07:14.631Z,76.70
2022-12-17T08:08:15.373Z,75.60
2022-12-17T08:09:16.100Z,73.40
2022-12-17T08:10:16.781Z,79.80
2022-12-17T08:11:17.486Z,71.40
2022-12-17T08:12:18.194Z,75.80
2022-12-17T08:13:18.924Z,72.10
2022-12-17T08:14:19.614Z,73.20
2022-12-17T08:15:20.322Z,67.80
2022-12-17T08:16:21.093Z,67.40
2022-12-17T08:17:21.801Z,74.50
2022-12-17T08:18:26.513Z,72.50
2022-12-17T08:19:23.443Z,78.70
2022-12-17T08:20:24.218Z,75.30
2022-12-17T08:21:24.908Z,76.00
2022-12-17T08:22:25.613Z,77.40
2022-12-17T08:23:26.374Z,72.80
2022-12-17T08:24:27.094Z,70.80
2022-12-17T08:25:27.765Z,72.20
2022-12-17T08:26:28.475Z,73.30
2022-12-17T08:27:29.185Z,67.60
2022-12-17T08:29:31.490Z,71.40
2022-12-17T08:30:31.225Z,68.70
2022-12-17T08:31:31.907Z,69.10
2022-12-17T08:32:32.611Z,74.10
2022-12-17T08:33:33.607Z,75.30
2022-12-17T08:34:33.877Z,68.30
2022-12-17T08:35:34.586Z,68.50
2022-12-17T08:36:35.294Z,70.30
2022-12-17T08:37:36.000Z,63.60
2022-12-17T08:38:36.874Z,70.80
2022-12-17T08:39:37.693Z,64.80
2022-12-17T08:40:38.319Z,66.90
2022-12-17T08:41:39.038Z,71.00
2022-12-17T08:42:39.736Z,63.70
2022-12-17T08:43:40.888Z,64.30
2022-12-17T08:44:41.118Z,60.00
2022-12-17T08:45:41.858Z,66.80
2022-12-17T08:46:42.527Z,60.00
2022-12-17T08:47:43.234Z,61.80
2022-12-17T08:48:44.375Z,60.30
2022-12-17T08:49:44.577Z,61.10
2022-12-17T08:50:45.289Z,62.10
2022-12-17T08:51:45.996Z,55.80
2022-12-17T08:52:46.702Z,58.60
2022-12-17T08:53:47.872Z,62.90
2022-12-17T08:54:48.094Z,59.70
2022-12-17T08:55:48.764Z,64.10
2022-12-17T08:56:49.471Z,68.00
2022-12-17T08:57:50.187Z,64.90
2022-12-17T08:58:54.412Z,57.90
2022-12-17T08:59:52.481Z,62.30
2022-12-17T09:00:52.249Z,59.10
2022-12-17T09:01:53.067Z,64.10
2022-12-17T09:02:53.961Z,61.60
2022-12-17T09:03:54.876Z,56.20
2022-12-17T09:04:55.576Z,53.50
2022-12-17T09:05:56.310Z,57.10
2022-12-17T09:06:57.010Z,57.00
2022-12-17T09:07:57.712Z,53.90
2022-12-17T09:08:58.874Z,54.50
2022-12-17T09:09:59.098Z,53.50
2022-12-17T09:10:59.749Z,58.40
2022-12-17T09:12:00.454Z,52.60
2022-12-17T09:13:04.627Z,57.50
2022-12-17T09:14:01.917Z,56.70
2022-12-17T09:15:02.578Z,56.20
2022-12-17T09:16:03.289Z,52.10
2022-12-17T09:17:04.124Z,53.40
2022-12-17T09:18:04.810Z,58.50
2022-12-17T09:19:05.550Z,55.40
2022-12-17T09:20:06.256Z,59.60
2022-12-17T09:21:06.951Z,52.40
2022-12-17T09:22:07.656Z,57.30
2022-12-17T09:23:08.360Z,50.70
2022-12-17T09:24:09.079Z,55.90
2022-12-17T09:25:09.806Z,55.50
2022-12-17T09:26:10.502Z,60.10
2022-12-17T09:27:11.215Z,56.90
2022-12-17T09:28:11.920Z,51.20
2022-12-17T09:29:12.665Z,53.70
2022-12-17T09:30:13.356Z,45.60
2022-12-17T09:31:14.090Z,57.00
2022-12-17T09:32:14.790Z,53.90
2022-12-17T09:33:15.506Z,50.60
2022-12-17T09:34:16.371Z,45.10
2022-12-17T09:35:17.083Z,52.70
2022-12-17T09:36:17.796Z,50.80
2022-12-17T09:37:18.501Z,49.70
2022-12-17T09:38:19.204Z,50.30
2022-12-17T09:39:20.372Z,48.40
2022-12-17T09:40:20.713Z,50.90
2022-12-17T09:41:21.337Z,44.90
2022-12-17T09:42:22.057Z,51.30
2022-12-17T09:43:22.749Z,49.00
2022-12-17T09:44:23.895Z,46.20
2022-12-17T09:45:24.080Z,48.70
2022-12-17T09:46:24.893Z,43.50
2022-12-17T09:47:25.527Z,39.60
2022-12-17T09:48:32.111Z,40.80
2022-12-17T09:49:27.843Z,48.10
2022-12-17T09:50:27.550Z,41.80
2022-12-17T09:51:28.277Z,38.50
2022-12-17T09:52:28.985Z,38.20
2022-12-17T09:53:29.691Z,41.70
2022-12-17T09:54:30.408Z,40.20
2022-12-17T09:55:31.150Z,45.20
2022-12-17T09:56:31.796Z,46.30
2022-12-17T09:57:32.500Z,39.90
2022-12-17T09:58:33.205Z,36.70
2022-12-17T09:59:34.053Z,41.30
2022-12-17T10:00:34.676Z,45.40
2022-12-17T10:01:35.538Z,44.10
2022-12-17T10:02:36.501Z,38.20
2022-12-17T10:03:37.302Z,43.40
2022-12-17T10:04:37.372Z,37.90
2022-12-17T10:05:38.075Z,39.60
2022-12-17T10:06:38.786Z,40.00
2022-12-17T10:07:39.491Z,42.40
2022-12-17T10:08:40.194Z,36.50
2022-12-17T10:09:40.912Z,47.40
2022-12-17T10:10:41.630Z,46.70
2022-12-17T10:11:42.286Z,42.20
2022-12-17T10:12:42.991Z,40.40
2022-12-17T10:13:43.701Z,41.50
2022-12-17T10:14:44.889Z,41.60
2022-12-17T10:15:45.114Z,39.60
2022-12-17T10:16:45.791Z,41.70
2022-12-17T10:17:46.488Z,44.80
2022-12-17T10:18:47.198Z,41.30
2022-12-17T10:19:48.374Z,44.40
2022-12-17T10:20:48.578Z,40.50
2022-12-17T10:21:49.287Z,39.90
2022-12-17T10:22:49.987Z,37.90
2022-12-17T10:23:50.692Z,40.60
2022-12-17T10:24:51.423Z,42.90
2022-12-17T10:25:52.145Z,39.90
2022-12-17T10:26:52.865Z,44.30
2022-12-17T10:27:53.570Z,40.80
2022-12-17T10:28:54.276Z,35.00
2022-12-17T10:29:55.019Z,47.10
2022-12-17T10:30:55.771Z,44.20
2022-12-17T10:31:56.412Z,42.10
2022-12-17T10:32:57.124Z,42.30
2022-12-17T10:33:57.835Z,39.50
2022-12-17T10:35:04.995Z,45.10
2022-12-17T10:36:00.173Z,40.00
2022-12-17T10:36:59.877Z,39.90
2022-12-17T10:38:00.590Z,38.80
2022-12-17T10:39:01.292Z,40.20
2022-12-17T10:40:02.374Z,35.80
2022-12-17T10:41:02.608Z,34.90
2022-12-17T10:42:03.268Z,35.30
2022-12-17T10:43:03.975Z,38.90
2022-12-17T10:44:04.683Z,38.90
2022-12-17T10:45:05.889Z,37.80
2022-12-17T10:46:06.123Z,40.40
2022-12-17T10:47:06.791Z,35.20
2022-12-17T10:48:07.497Z,42.20
2022-12-17T10:49:11.446Z,36.30
2022-12-17T10:50:09.376Z,36.00
2022-12-17T10:51:09.578Z,34.10
2022-12-17T10:52:10.284Z,33.20
2022-12-17T10:53:10.995Z,37.50
2022-12-17T10:54:11.704Z,36.70
2022-12-17T10:55:12.877Z,36.30
2022-12-17T10:56:13.108Z,33.30
2022-12-17T10:57:13.758Z,38.40
2022-12-17T10:58:14.465Z,34.10
2022-12-17T10:59:15.171Z,32.80
2022-12-17T11:00:16.396Z,34.40
2022-12-17T11:01:16.723Z,44.30
2022-12-17T11:02:17.725Z,34.00
2022-12-17T11:03:18.065Z,38.30
2022-12-17T11:04:18.743Z,27.60
2022-12-17T11:05:19.460Z,36.50
2022-12-17T11:06:20.169Z,31.60
2022-12-17T11:07:20.878Z,35.20
2022-12-17T11:08:21.588Z,34.20
2022-12-17T11:09:22.379Z,42.10
2022-12-17T11:10:23.093Z,32.20
2022-12-17T11:11:23.816Z,34.80
2022-12-17T11:12:30.107Z,35.90
2022-12-17T11:13:26.076Z,37.10
2022-12-17T11:14:25.780Z,38.60
2022-12-17T11:15:26.517Z,42.50
2022-12-17T11:16:27.294Z,32.80
2022-12-17T11:17:27.953Z,37.50
2022-12-17T11:18:28.663Z,35.30
2022-12-17T11:19:29.376Z,37.40
2022-12-17T11:20:30.371Z,33.80
2022-12-17T11:21:30.579Z,38.60
2022-12-17T11:22:31.292Z,37.60
2022-12-17T11:23:32.031Z,36.30
2022-12-17T11:24:32.736Z,36.20
2022-12-17T11:25:33.873Z,34.40
2022-12-17T11:26:34.132Z,35.10
2022-12-17T11:27:34.772Z,35.30
2022-12-17T11:28:35.480Z,38.50
2022-12-17T11:29:36.179Z,38.60
2022-12-17T11:30:37.402Z,33.30
2022-12-17T11:31:37.684Z,35.20
2022-12-17T11:32:38.333Z,35.00
2022-12-17T11:33:39.422Z,36.80
2022-12-17T11:34:39.804Z,35.40
2022-12-17T11:35:40.868Z,34.50
2022-12-17T11:36:41.084Z,41.90
2022-12-17T11:37:41.783Z,36.30
2022-12-17T11:38:42.489Z,39.70
2022-12-17T11:39:43.195Z,41.00
2022-12-17T11:40:43.908Z,34.30
2022-12-17T11:41:44.633Z,38.30
2022-12-17T11:42:45.331Z,42.30
2022-12-17T11:43:46.038Z,33.30
2022-12-17T11:44:46.743Z,33.70
2022-12-17T11:45:47.895Z,37.70
2022-12-17T11:46:48.136Z,36.80
2022-12-17T11:47:48.803Z,42.60
2022-12-17T11:48:49.508Z,38.50
2022-12-17T11:49:50.217Z,35.70
2022-12-17T11:50:50.933Z,34.30
2022-12-17T11:51:51.645Z,38.30
2022-12-17T11:52:52.350Z,34.90
2022-12-17T11:53:53.059Z,38.40
2022-12-17T11:54:53.768Z,39.40
2022-12-17T11:55:54.372Z,35.10
2022-12-17T11:56:55.100Z,36.70
2022-12-17T11:57:55.750Z,38.90
2022-12-17T11:58:56.455Z,37.60
2022-12-17T12:00:02.366Z,40.90
2022-12-17T12:00:58.788Z,32.70
2022-12-17T12:01:58.564Z,33.20
2022-12-17T12:02:59.417Z,36.00
2022-12-17T12:04:00.222Z,37.20
2022-12-17T12:05:00.865Z,39.00
2022-12-17T12:06:01.875Z,37.60
2022-12-17T12:07:02.086Z,36.90
2022-12-17T12:08:02.791Z,36.80
2022-12-17T12:09:03.500Z,37.60
2022-12-17T12:10:04.208Z,32.80
2022-12-17T12:11:05.372Z,36.70
2022-12-17T12:12:05.598Z,34.70
2022-12-17T12:13:06.271Z,33.70
2022-12-17T12:14:06.984Z,35.30
2022-12-17T12:15:07.686Z,37.30
2022-12-17T12:16:08.443Z,33.30
2022-12-17T12:17:09.107Z,38.20
2022-12-17T12:18:09.811Z,36.80
2022-12-17T12:19:10.516Z,32.50
2022-12-17T12:20:11.434Z,35.70
2022-12-17T12:21:12.376Z,36.10
2022-12-17T12:22:13.085Z,33.50
2022-12-17T12:23:13.793Z,33.10
2022-12-17T12:24:14.494Z,35.20
2022-12-17T12:25:15.204Z,34.50
2022-12-17T12:26:16.376Z,37.30
2022-12-17T12:27:16.600Z,33.60
2022-12-17T12:28:17.301Z,29.50
2022-12-17T12:29:18.007Z,34.70
2022-12-17T12:30:18.716Z,37.30
2022-12-17T12:31:19.553Z,40.60
2022-12-17T12:32:20.218Z,37.40
2022-12-17T12:33:20.922Z,35.20
2022-12-17T12:34:21.630Z,35.20
2022-12-17T12:35:22.429Z,33.10
2022-12-17T12:36:23.379Z,31.80
2022-12-17T12:37:24.092Z,33.00
2022-12-17T12:38:24.795Z,33.70
2022-12-17T12:39:25.503Z,29.20
2022-12-17T12:40:26.240Z,35.80
2022-12-17T12:41:26.955Z,31.10
2022-12-17T12:42:27.676Z,28.40
2022-12-17T12:43:28.345Z,34.60
2022-12-17T12:44:29.055Z,30.10
2022-12-17T12:45:29.828Z,28.00
2022-12-17T12:46:30.896Z,32.00
2022-12-17T12:47:31.083Z,31.70
2022-12-17T12:48:31.792Z,30.60
2022-12-17T12:49:32.500Z,31.00
2022-12-17T12:50:33.205Z,33.30
2022-12-17T12:51:34.619Z,27.90